Antimony, Utah
Current Conditions -  °F | °C
As of 1:53 PM on Friday 19 Dec 2014 (Local Time) from KBCE Reporting Station
Clear Clear  
Wind Chill: 24°   Ceiling: Unl
Heat Index: 33°   Visibility: 10mi
Dew Point: 20°   Wind: 12mph
Humidity: 59%   Direction: 150°SSE
Pressure: 30.17"   Gusts: NA
Location:  38.12°N, 112°W
Report Text: KBCE 192053Z AUTO 15010KT 10SM CLR 01/M07 A3017 RMK AO2 SLP216 T00061067 56019
Loading
Personal Weather Stations






























Interactive Weather Map New forecast layout! Learn more

10-Day Weather Forecast

Advertisements
Track Severe Weather on mobile